createdAt,value
2022-09-02T00:01:38.025Z,101063.88
2022-09-02T00:04:20.136Z,101056.69
2022-09-02T00:06:47.802Z,101054.28
2022-09-02T00:09:16.721Z,101053.97
2022-09-02T00:11:45.352Z,101055.53
2022-09-02T00:14:16.268Z,101046.69
2022-09-02T00:16:45.217Z,101052.38
2022-09-02T00:19:47.782Z,101056.78
2022-09-02T00:22:14.224Z,101044.69
2022-09-02T00:24:40.705Z,101046.84
2022-09-02T00:27:07.408Z,101044.44
2022-09-02T00:29:33.850Z,101039.88
2022-09-02T00:32:00.643Z,101035.34
2022-09-02T00:34:27.230Z,101036.13
2022-09-02T00:36:53.680Z,101034.94
2022-09-02T00:39:20.314Z,101024.44
2022-09-02T00:41:47.112Z,101033.47
2022-09-02T00:44:16.147Z,101034.84
2022-09-02T00:46:42.845Z,101030.75
2022-09-02T00:49:14.324Z,101031.31
2022-09-02T00:51:48.761Z,101036.34
2022-09-02T00:54:17.266Z,101033.91
2022-09-02T00:56:45.383Z,101030.63
2022-09-02T00:59:21.314Z,101033.22
2022-09-02T01:01:48.814Z,101033.69
2022-09-02T01:04:17.131Z,101031.06
2022-09-02T01:06:44.217Z,101036.03
2022-09-02T01:09:14.711Z,101031.03
2022-09-02T01:11:50.917Z,101027.28
2022-09-02T01:14:18.106Z,101028.66
2022-09-02T01:16:53.131Z,101032.00
2022-09-02T01:19:35.779Z,101025.00
2022-09-02T01:22:02.821Z,101024.66
2022-09-02T01:24:31.599Z,101024.06
2022-09-02T01:26:59.354Z,101019.91
2022-09-02T01:29:27.232Z,101020.69
2022-09-02T01:31:54.223Z,101023.28
2022-09-02T01:34:21.109Z,101021.00
2022-09-02T01:36:47.737Z,101020.19
2022-09-02T01:39:14.419Z,101010.78
2022-09-02T01:41:41.364Z,101012.88
2022-09-02T01:44:08.235Z,101015.72
2022-09-02T01:46:36.286Z,101010.78
2022-09-02T01:49:03.521Z,101011.56
2022-09-02T01:51:30.002Z,101007.38
2022-09-02T01:53:56.481Z,101007.66
2022-09-02T01:56:23.034Z,101010.97
2022-09-02T01:58:49.472Z,101000.38
2022-09-02T02:01:15.921Z,101008.88
2022-09-02T02:03:42.776Z,101006.88
2022-09-02T02:06:14.179Z,101005.91
2022-09-02T02:08:40.773Z,100994.97
2022-09-02T02:11:20.327Z,100999.25
2022-09-02T02:13:46.924Z,100996.75
2022-09-02T02:16:13.911Z,101001.41
2022-09-02T02:18:40.614Z,101001.00
2022-09-02T02:21:07.392Z,100993.06
2022-09-02T02:23:34.009Z,100994.75
2022-09-02T02:26:00.490Z,100989.97
2022-09-02T02:28:27.167Z,100993.78
2022-09-02T02:30:54.684Z,100992.19
2022-09-02T02:33:21.375Z,100993.59
2022-09-02T02:35:52.586Z,100989.78
2022-09-02T02:38:22.387Z,100998.41
2022-09-02T02:40:48.868Z,100989.09
2022-09-02T02:43:15.307Z,100992.50
2022-09-02T02:45:41.782Z,100988.03
2022-09-02T02:48:08.394Z,100989.78
2022-09-02T02:50:34.855Z,100985.69
2022-09-02T02:53:02.776Z,100987.59
2022-09-02T02:55:29.675Z,100996.63
2022-09-02T02:57:56.143Z,100989.50
2022-09-02T03:00:25.919Z,100992.91
2022-09-02T03:03:19.942Z,100990.00
2022-09-02T03:05:47.523Z,100989.31
2022-09-02T03:08:14.499Z,100984.03
2022-09-02T03:10:42.046Z,100984.81
2022-09-02T03:13:10.388Z,100993.00
2022-09-02T03:15:38.929Z,100986.41
2022-09-02T03:18:06.030Z,100982.03
2022-09-02T03:20:32.838Z,100987.00
2022-09-02T03:23:00.123Z,100980.41
2022-09-02T03:25:31.200Z,100983.69
2022-09-02T03:28:01.565Z,100984.00
2022-09-02T03:30:30.859Z,100983.69
2022-09-02T03:33:03.879Z,100981.41
2022-09-02T03:35:31.611Z,100979.41
2022-09-02T03:37:59.905Z,100981.19
2022-09-02T03:40:28.551Z,100975.19
2022-09-02T03:42:59.920Z,100971.00
2022-09-02T03:45:29.334Z,100971.91
2022-09-02T03:47:56.335Z,100976.88
2022-09-02T03:50:30.063Z,100968.78
2022-09-02T03:52:57.193Z,100962.28
2022-09-02T03:55:24.322Z,100968.19
2022-09-02T03:57:50.948Z,100967.72
2022-09-02T04:00:20.739Z,100966.38
2022-09-02T04:02:49.029Z,100967.59
2022-09-02T04:05:17.113Z,100962.47
2022-09-02T04:07:53.895Z,100962.00
2022-09-02T04:10:28.565Z,100960.19
2022-09-02T04:12:55.147Z,100963.88
2022-09-02T04:15:31.840Z,100953.78
2022-09-02T04:17:58.815Z,100956.56
2022-09-02T04:20:25.690Z,100959.34
2022-09-02T04:22:52.234Z,100960.13
2022-09-02T04:25:19.068Z,100965.75
2022-09-02T04:27:50.778Z,100959.22
2022-09-02T04:30:18.403Z,100963.16
2022-09-02T04:32:45.286Z,100957.34
2022-09-02T04:35:23.287Z,100958.44
2022-09-02T04:37:52.932Z,100947.34
2022-09-02T04:40:19.367Z,100956.53
2022-09-02T04:42:46.333Z,100951.47
2022-09-02T04:45:12.793Z,100959.34
2022-09-02T04:47:39.214Z,100949.16
2022-09-02T04:50:14.966Z,100953.63
2022-09-02T04:53:00.005Z,100946.63
2022-09-02T04:55:26.465Z,100952.00
2022-09-02T04:57:52.946Z,100950.66
2022-09-02T05:00:19.531Z,100952.09
2022-09-02T05:02:48.077Z,100952.53
2022-09-02T05:05:14.998Z,100954.59
2022-09-02T05:07:41.583Z,100959.88
2022-09-02T05:10:08.615Z,100951.25
2022-09-02T05:12:36.530Z,100951.97
2022-09-02T05:15:03.709Z,100960.81
2022-09-02T05:17:33.716Z,100954.94
2022-09-02T05:20:00.296Z,100957.81
2022-09-02T05:22:29.525Z,100952.13
2022-09-02T05:25:11.310Z,100954.31
2022-09-02T05:27:38.526Z,100954.41
2022-09-02T05:30:05.602Z,100955.31
2022-09-02T05:32:35.646Z,100954.41
2022-09-02T05:35:04.552Z,100958.56
2022-09-02T05:37:31.204Z,100958.53
2022-09-02T05:39:57.774Z,100959.19
2022-09-02T05:43:09.040Z,100960.63
2022-09-02T05:45:39.297Z,100961.06
2022-09-02T05:48:25.799Z,100950.75
2022-09-02T05:51:37.414Z,100955.06
2022-09-02T05:54:04.192Z,100952.09
2022-09-02T05:56:30.695Z,100947.50
2022-09-02T05:58:58.727Z,100947.88
2022-09-02T06:01:34.993Z,100946.97
2022-09-02T06:04:14.754Z,100952.47
2022-09-02T06:07:25.117Z,100942.56
2022-09-02T06:09:52.520Z,100946.16
2022-09-02T06:12:20.464Z,100945.78
2022-09-02T06:14:48.635Z,100947.66
2022-09-02T06:17:15.729Z,100941.66
2022-09-02T06:19:42.708Z,100941.09
2022-09-02T06:22:09.394Z,100945.97
2022-09-02T06:24:38.050Z,100946.47
2022-09-02T06:27:04.902Z,100937.75
2022-09-02T06:29:31.583Z,100943.41
2022-09-02T06:31:58.807Z,100941.13
2022-09-02T06:34:27.377Z,100934.94
2022-09-02T06:36:53.876Z,100942.84
2022-09-02T06:39:21.750Z,100941.44
2022-09-02T06:41:49.190Z,100937.25
2022-09-02T06:44:16.469Z,100939.88
2022-09-02T06:46:47.678Z,100944.38
2022-09-02T06:49:16.537Z,100941.19
2022-09-02T06:51:45.772Z,100940.38
2022-09-02T06:54:16.408Z,100939.38
2022-09-02T06:56:57.373Z,100939.53
2022-09-02T06:59:23.922Z,100929.66
2022-09-02T07:02:38.313Z,100928.00
2022-09-02T07:05:15.049Z,100929.97
2022-09-02T07:07:43.185Z,100929.81
2022-09-02T07:10:12.259Z,100921.53
2022-09-02T07:12:40.032Z,100926.66
2022-09-02T07:15:11.420Z,100924.78
2022-09-02T07:17:38.641Z,100929.59
2022-09-02T07:20:06.091Z,100921.00
2022-09-02T07:22:32.554Z,100920.19
2022-09-02T07:24:59.046Z,100918.25
2022-09-02T07:31:14.148Z,100926.72
2022-09-02T07:33:59.014Z,100925.94
2022-09-02T07:36:26.458Z,100920.31
2022-09-02T07:38:53.920Z,100921.00
2022-09-02T07:41:20.783Z,100919.06
2022-09-02T07:43:51.043Z,100920.84
2022-09-02T07:46:18.333Z,100928.38
2022-09-02T07:48:45.204Z,100916.84
2022-09-02T07:51:39.725Z,100923.88
2022-09-02T07:54:08.404Z,100917.84
2022-09-02T07:56:35.033Z,100917.72
2022-09-02T07:59:13.876Z,100917.28
2022-09-02T08:04:13.381Z,100915.78
2022-09-02T08:06:39.889Z,100910.41
2022-09-02T08:09:11.882Z,100906.03
2022-09-02T08:11:40.208Z,100895.91
2022-09-02T08:14:08.674Z,100892.69
2022-09-02T08:16:35.813Z,100902.31
2022-09-02T08:19:02.311Z,100914.16
2022-09-02T08:21:29.422Z,100908.38
2022-09-02T08:23:57.434Z,100909.91
2022-09-02T08:26:23.939Z,100911.41
2022-09-02T08:28:50.473Z,100909.09
2022-09-02T08:31:19.073Z,100912.69
2022-09-02T08:33:45.653Z,100905.75
2022-09-02T08:36:14.941Z,100904.09
2022-09-02T08:38:42.669Z,100913.09
2022-09-02T08:41:26.508Z,100914.56
2022-09-02T08:44:18.927Z,100906.47
2022-09-02T08:46:45.314Z,100902.09
2022-09-02T08:49:25.777Z,100907.25
2022-09-02T08:52:01.766Z,100899.66
2022-09-02T08:54:44.513Z,100901.00
2022-09-02T08:57:11.499Z,100898.69
2022-09-02T08:59:38.491Z,100906.97
2022-09-02T09:02:05.233Z,100901.63
2022-09-02T09:04:37.755Z,100891.22
2022-09-02T09:07:19.048Z,100898.59
2022-09-02T09:09:57.224Z,100891.06
2022-09-02T09:12:32.534Z,100885.28
2022-09-02T09:15:18.730Z,100877.31
2022-09-02T09:17:59.890Z,100880.69
2022-09-02T09:20:55.681Z,100879.59
2022-09-02T09:23:34.703Z,100870.06
2022-09-02T09:26:39.454Z,100871.53
2022-09-02T09:30:06.484Z,100863.81
2022-09-02T09:32:36.583Z,100857.91
2022-09-02T09:35:07.112Z,100855.00
2022-09-02T09:37:36.450Z,100851.44
2022-09-02T09:40:31.089Z,100844.81
2022-09-02T09:44:02.187Z,100846.75
2022-09-02T09:46:32.302Z,100848.81
2022-09-02T09:49:03.967Z,100838.00
2022-09-02T09:51:30.417Z,100839.59
2022-09-02T09:55:20.908Z,100835.94
2022-09-02T09:58:08.317Z,100823.63
2022-09-02T10:01:22.009Z,100827.06
2022-09-02T10:04:42.247Z,100825.34
2022-09-02T10:07:11.384Z,100828.53
2022-09-02T10:09:37.817Z,100827.44
2022-09-02T10:12:05.653Z,100829.59
2022-09-02T10:14:53.389Z,100825.44
2022-09-02T10:17:41.878Z,100815.41
2022-09-02T10:20:22.810Z,100812.88
2022-09-02T10:26:43.718Z,100799.53
2022-09-02T10:33:06.909Z,100810.59
2022-09-02T10:35:44.305Z,100803.03
2022-09-02T10:38:16.466Z,100794.91
2022-09-02T10:41:24.459Z,100788.09
2022-09-02T10:44:14.348Z,100779.72
2022-09-02T10:47:01.756Z,100788.63
2022-09-02T10:50:00.939Z,100779.00
2022-09-02T10:52:31.562Z,100783.81
2022-09-02T10:55:06.802Z,100772.78
2022-09-02T10:57:38.755Z,100773.78
2022-09-02T11:00:09.166Z,100770.31
2022-09-02T11:02:38.956Z,100762.06
2022-09-02T11:05:13.282Z,100762.06
2022-09-02T11:07:49.784Z,100759.44
2022-09-02T11:10:21.242Z,100759.22
2022-09-02T11:12:52.704Z,100763.22
2022-09-02T11:15:24.069Z,100762.47
2022-09-02T11:17:55.845Z,100768.69
2022-09-02T11:20:44.520Z,100753.88
2022-09-02T11:23:57.798Z,100747.78
2022-09-02T11:30:21.826Z,100740.84
2022-09-02T11:32:57.108Z,100742.63
2022-09-02T11:35:27.957Z,100748.41
2022-09-02T11:41:51.382Z,100736.91
2022-09-02T11:44:36.478Z,100739.72
2022-09-02T11:47:15.475Z,100735.44
2022-09-02T11:53:41.294Z,100713.03
2022-09-02T11:59:51.166Z,100694.56
2022-09-02T12:02:50.849Z,100694.53
2022-09-02T12:16:37.449Z,100682.16
2022-09-02T12:19:07.371Z,100688.38
2022-09-02T12:21:38.921Z,100691.75
2022-09-02T12:24:09.100Z,100695.44
2022-09-02T12:31:09.412Z,100675.91
2022-09-02T12:37:53.912Z,100662.38
2022-09-02T12:40:29.788Z,100667.75
2022-09-02T12:43:03.630Z,100673.22
2022-09-02T12:45:30.785Z,100669.47
2022-09-02T12:48:39.472Z,100674.06
2022-09-02T12:51:08.714Z,100657.25
2022-09-02T12:53:40.994Z,100654.31
2022-09-02T12:56:13.324Z,100633.06
2022-09-02T12:58:46.513Z,100646.66
2022-09-02T13:01:42.459Z,100643.59
2022-09-02T13:04:34.202Z,100631.75
2022-09-02T13:07:22.447Z,100632.28
2022-09-02T13:10:16.833Z,100634.56
2022-09-02T13:13:14.642Z,100632.72
2022-09-02T13:15:59.501Z,100630.00
2022-09-02T13:19:03.503Z,100637.63
2022-09-02T13:21:44.294Z,100631.50
2022-09-02T13:24:15.306Z,100634.25
2022-09-02T13:26:50.993Z,100631.22
2022-09-02T13:29:42.196Z,100615.75
2022-09-02T13:32:17.775Z,100617.06
2022-09-02T13:34:46.124Z,100617.13
2022-09-02T13:37:38.603Z,100596.41
2022-09-02T13:40:27.980Z,100595.13
2022-09-02T13:42:57.404Z,100621.53
2022-09-02T13:45:29.126Z,100627.09
2022-09-02T13:47:57.684Z,100628.84
2022-09-02T13:50:29.979Z,100631.22
2022-09-02T13:55:55.312Z,100628.22
2022-09-02T13:58:33.859Z,100628.38
2022-09-02T14:01:30.741Z,100618.03
2022-09-02T14:03:59.828Z,100607.59
2022-09-02T14:06:31.142Z,100607.56
2022-09-02T14:09:00.647Z,100606.75
2022-09-02T14:11:28.300Z,100604.94
2022-09-02T14:13:55.919Z,100600.34
2022-09-02T14:16:36.239Z,100594.06
2022-09-02T14:19:04.722Z,100594.88
2022-09-02T14:21:32.130Z,100585.41
2022-09-02T14:23:58.868Z,100584.56
2022-09-02T14:26:30.607Z,100594.13
2022-09-02T14:28:57.323Z,100591.38
2022-09-02T14:31:29.378Z,100592.78
2022-09-02T14:33:56.692Z,100585.28
2022-09-02T14:36:26.113Z,100582.03
2022-09-02T14:38:55.551Z,100569.50
2022-09-02T14:41:35.986Z,100563.09
2022-09-02T14:44:16.625Z,100553.22
2022-09-02T14:46:48.078Z,100543.88
2022-09-02T14:49:21.730Z,100553.84
2022-09-02T14:51:53.868Z,100552.31
2022-09-02T14:54:42.753Z,100556.19
2022-09-02T14:57:32.681Z,100554.31
2022-09-02T15:00:11.630Z,100564.13
2022-09-02T15:02:43.045Z,100557.06
2022-09-02T15:05:14.704Z,100555.31
2022-09-02T15:07:41.446Z,100561.50
2022-09-02T15:10:09.672Z,100547.81
2022-09-02T15:12:45.203Z,100545.53
2022-09-02T15:15:11.748Z,100537.94
2022-09-02T15:17:38.320Z,100543.41
2022-09-02T15:20:06.754Z,100552.66
2022-09-02T15:22:38.399Z,100556.16
2022-09-02T15:25:07.958Z,100549.88
2022-09-02T15:27:34.858Z,100542.88
2022-09-02T15:30:05.010Z,100547.31
2022-09-02T15:32:31.702Z,100547.31
2022-09-02T15:34:58.246Z,100546.31
2022-09-02T15:37:29.006Z,100536.53
2022-09-02T15:39:55.961Z,100542.66
2022-09-02T15:42:22.578Z,100541.59
2022-09-02T15:44:49.143Z,100539.28
2022-09-02T15:47:15.652Z,100527.66
2022-09-02T15:49:42.612Z,100511.84
2022-09-02T15:52:09.157Z,100513.66
2022-09-02T15:54:35.631Z,100519.22
2022-09-02T15:57:02.126Z,100508.69
2022-09-02T15:59:28.682Z,100507.88
2022-09-02T16:01:56.599Z,100515.47
2022-09-02T16:04:23.499Z,100500.31
2022-09-02T16:06:52.326Z,100509.69
2022-09-02T16:09:19.611Z,100508.06
2022-09-02T16:11:48.934Z,100510.63
2022-09-02T16:14:20.779Z,100504.56
2022-09-02T16:16:49.326Z,100502.47
2022-09-02T16:19:18.336Z,100496.28
2022-09-02T16:21:44.785Z,100486.06
2022-09-02T16:24:11.251Z,100493.75
2022-09-02T16:26:39.315Z,100486.78
2022-09-02T16:29:08.243Z,100487.00
2022-09-02T16:31:38.206Z,100501.13
2022-09-02T16:34:06.739Z,100493.19
2022-09-02T16:36:35.375Z,100491.50
2022-09-02T16:39:03.157Z,100493.16
2022-09-02T16:41:34.779Z,100488.66
2022-09-02T16:44:02.042Z,100486.91
2022-09-02T16:46:29.704Z,100491.41
2022-09-02T16:48:56.364Z,100479.97
2022-09-02T16:51:24.201Z,100478.09
2022-09-02T16:54:02.809Z,100471.41
2022-09-02T16:56:30.561Z,100471.38
2022-09-02T16:59:01.633Z,100471.88
2022-09-02T17:04:15.814Z,100464.97
2022-09-02T17:07:34.332Z,100471.56
2022-09-02T17:10:01.002Z,100487.03
2022-09-02T17:12:27.458Z,100484.38
2022-09-02T17:14:53.914Z,100479.00
2022-09-02T17:17:20.376Z,100478.81
2022-09-02T17:19:47.078Z,100476.06
2022-09-02T17:22:13.737Z,100477.50
2022-09-02T17:24:41.916Z,100482.66
2022-09-02T17:27:08.864Z,100472.97
2022-09-02T17:29:50.617Z,100490.13
2022-09-02T17:32:18.251Z,100487.97
2022-09-02T17:34:44.709Z,100492.31
2022-09-02T17:37:11.147Z,100487.00
2022-09-02T17:39:37.731Z,100486.94
2022-09-02T17:42:05.307Z,100491.94
2022-09-02T17:44:36.215Z,100496.19
2022-09-02T17:47:05.708Z,100494.41
2022-09-02T17:49:33.869Z,100498.72
2022-09-02T17:52:00.666Z,100493.44
2022-09-02T17:54:30.443Z,100497.88
2022-09-02T17:57:08.870Z,100494.97
2022-09-02T18:00:00.576Z,100499.78
2022-09-02T18:03:00.092Z,100500.75
2022-09-02T18:05:51.936Z,100498.78
2022-09-02T18:08:36.665Z,100498.28
2022-09-02T18:11:05.157Z,100494.38
2022-09-02T18:13:40.208Z,100490.31
2022-09-02T18:16:28.659Z,100499.88
2022-09-02T18:19:13.388Z,100494.13
2022-09-02T18:21:41.847Z,100496.63
2022-09-02T18:24:25.248Z,100498.13
2022-09-02T18:27:11.575Z,100504.66
2022-09-02T18:29:53.388Z,100499.97
2022-09-02T18:32:51.203Z,100508.75
2022-09-02T18:35:20.675Z,100507.56
2022-09-02T18:38:06.555Z,100508.19
2022-09-02T18:40:47.478Z,100504.78
2022-09-02T18:43:19.751Z,100507.34
2022-09-02T18:45:54.750Z,100510.22
2022-09-02T18:48:26.546Z,100512.94
2022-09-02T18:51:10.142Z,100508.19
2022-09-02T18:53:47.361Z,100515.16
2022-09-02T18:56:14.942Z,100515.38
2022-09-02T18:59:14.639Z,100519.28
2022-09-02T19:01:44.743Z,100520.91
2022-09-02T19:04:11.397Z,100518.03
2022-09-02T19:06:37.926Z,100515.34
2022-09-02T19:09:07.382Z,100526.97
2022-09-02T19:11:36.210Z,100527.88
2022-09-02T19:14:08.731Z,100532.00
2022-09-02T19:16:38.398Z,100528.38
2022-09-02T19:19:06.440Z,100530.13
2022-09-02T19:21:40.711Z,100537.34
2022-09-02T19:24:11.104Z,100543.44
2022-09-02T19:26:39.148Z,100538.25
2022-09-02T19:29:11.328Z,100548.59
2022-09-02T19:31:39.960Z,100545.88
2022-09-02T19:34:08.246Z,100543.28
2022-09-02T19:36:38.611Z,100550.78
2022-09-02T19:39:05.470Z,100553.59
2022-09-02T19:41:32.032Z,100547.78
2022-09-02T19:44:00.059Z,100545.84
2022-09-02T19:49:13.058Z,100549.81
2022-09-02T19:51:40.865Z,100551.28
2022-09-02T19:54:08.507Z,100551.09
2022-09-02T19:56:35.275Z,100552.91
2022-09-02T19:59:02.066Z,100544.72
2022-09-02T20:01:35.581Z,100544.59
2022-09-02T20:04:02.113Z,100550.78
2022-09-02T20:06:28.759Z,100547.88
2022-09-02T20:08:55.408Z,100550.88
2022-09-02T20:11:21.850Z,100555.69
2022-09-02T20:13:49.923Z,100558.72
2022-09-02T20:16:22.276Z,100550.31
2022-09-02T20:18:51.126Z,100549.41
2022-09-02T20:21:25.198Z,100544.84
2022-09-02T20:23:53.892Z,100545.97
2022-09-02T20:26:49.971Z,100546.28
2022-09-02T20:29:29.818Z,100548.84
2022-09-02T20:32:03.663Z,100540.97
2022-09-02T20:34:43.009Z,100547.81
2022-09-02T20:37:37.059Z,100547.72
2022-09-02T20:40:07.073Z,100545.47
2022-09-02T20:42:52.280Z,100539.28
2022-09-02T20:45:38.948Z,100545.19
2022-09-02T20:48:42.535Z,100544.75
2022-09-02T20:51:18.889Z,100549.78
2022-09-02T20:54:01.232Z,100542.66
2022-09-02T20:56:46.389Z,100543.56
2022-09-02T20:59:34.910Z,100540.22
2022-09-02T21:02:03.142Z,100549.25
2022-09-02T21:04:45.677Z,100548.13
2022-09-02T21:07:20.848Z,100550.56
2022-09-02T21:10:09.220Z,100547.78
2022-09-02T21:12:43.044Z,100543.63
2022-09-02T21:15:12.613Z,100546.09
2022-09-02T21:17:48.235Z,100549.22
2022-09-02T21:20:29.896Z,100540.44
2022-09-02T21:22:58.702Z,100543.94
2022-09-02T21:25:28.760Z,100543.28
2022-09-02T21:28:34.942Z,100541.59
2022-09-02T21:31:06.984Z,100544.88
2022-09-02T21:33:35.268Z,100543.63
2022-09-02T21:36:02.682Z,100546.91
2022-09-02T21:38:42.789Z,100547.44
2022-09-02T21:41:39.459Z,100541.13
2022-09-02T21:44:24.853Z,100542.38
2022-09-02T21:47:01.405Z,100545.06
2022-09-02T21:49:46.732Z,100546.06
2022-09-02T21:52:28.147Z,100535.84
2022-09-02T21:55:20.538Z,100545.94
2022-09-02T21:57:53.829Z,100546.63
2022-09-02T22:00:22.154Z,100547.19
2022-09-02T22:03:00.354Z,100549.75
2022-09-02T22:05:36.122Z,100547.25
2022-09-02T22:08:23.497Z,100551.09
2022-09-02T22:11:41.175Z,100542.34
2022-09-02T22:14:12.395Z,100542.53
2022-09-02T22:16:56.118Z,100544.91
2022-09-02T22:19:28.990Z,100539.81
2022-09-02T22:22:09.140Z,100532.53
2022-09-02T22:24:37.362Z,100536.53
2022-09-02T22:27:16.653Z,100534.22
2022-09-02T22:30:02.392Z,100542.72
2022-09-02T22:32:31.859Z,100535.28
2022-09-02T22:35:09.415Z,100538.47
2022-09-02T22:37:58.260Z,100532.59
2022-09-02T22:40:26.133Z,100531.31
2022-09-02T22:42:54.226Z,100527.59
2022-09-02T22:45:48.913Z,100525.16
2022-09-02T22:48:37.639Z,100533.22
2022-09-02T22:51:30.674Z,100527.94
2022-09-02T22:53:57.283Z,100533.00
2022-09-02T22:56:37.274Z,100535.69
2022-09-02T22:59:39.387Z,100532.03
2022-09-02T23:02:20.336Z,100531.88
2022-09-02T23:05:37.233Z,100531.13
2022-09-02T23:08:06.246Z,100529.28
2022-09-02T23:10:35.210Z,100529.94
2022-09-02T23:13:14.213Z,100528.84
2022-09-02T23:15:48.058Z,100527.75
2022-09-02T23:18:42.217Z,100528.38
2022-09-02T23:21:20.021Z,100524.03
2022-09-02T23:23:49.606Z,100528.25
2022-09-02T23:26:30.423Z,100524.19
2022-09-02T23:29:17.685Z,100522.53
2022-09-02T23:32:29.990Z,100530.09
2022-09-02T23:35:02.443Z,100521.41
2022-09-02T23:37:42.597Z,100514.38
2022-09-02T23:40:26.507Z,100520.00
2022-09-02T23:42:53.514Z,100527.16
2022-09-02T23:45:21.912Z,100515.50
2022-09-02T23:47:57.330Z,100514.81
2022-09-02T23:51:06.295Z,100507.38
2022-09-02T23:53:48.681Z,100515.06
2022-09-02T23:56:39.908Z,100518.88
2022-09-02T23:59:27.698Z,100519.03
